createdAt,value
2023-01-09T00:02:50.458Z,3.77
2023-01-09T00:07:08.208Z,3.69
2023-01-09T00:11:25.891Z,3.70
2023-01-09T00:15:43.589Z,3.69
2023-01-09T00:20:01.105Z,3.69
2023-01-09T00:24:18.906Z,3.70
2023-01-09T00:28:36.669Z,3.66
2023-01-09T00:32:55.592Z,3.61
2023-01-09T00:37:13.297Z,3.36
2023-01-09T00:41:44.670Z,2.70
2023-01-09T00:46:06.709Z,2.37
2023-01-09T00:50:30.925Z,2.06
2023-01-09T00:54:48.571Z,1.85
2023-01-09T00:59:07.466Z,1.71
2023-01-09T01:03:25.448Z,1.47
2023-01-09T01:07:43.493Z,1.32
2023-01-09T01:12:07.234Z,1.12
2023-01-09T01:16:25.703Z,0.99
2023-01-09T01:20:45.385Z,0.98
2023-01-09T01:25:04.559Z,0.94
2023-01-09T01:29:22.439Z,0.71
2023-01-09T01:33:39.938Z,0.85
2023-01-09T01:37:57.920Z,0.95
2023-01-09T01:42:15.486Z,0.99
2023-01-09T01:46:34.845Z,0.75
2023-01-09T01:51:05.244Z,0.78
2023-01-09T01:55:23.585Z,0.88
2023-01-09T01:59:50.623Z,0.68
2023-01-09T02:04:08.665Z,0.57
2023-01-09T02:08:26.635Z,0.50
2023-01-09T02:12:44.133Z,0.36
2023-01-09T02:17:17.615Z,0.25
2023-01-09T02:22:27.828Z,0.08
2023-01-09T02:27:01.801Z,-0.09
2023-01-09T02:31:41.480Z,-0.39
2023-01-09T02:36:57.956Z,-0.39
2023-01-09T02:41:26.721Z,-0.39
2023-01-09T02:45:44.448Z,-0.48
2023-01-09T02:50:06.275Z,-0.48
2023-01-09T02:54:47.325Z,-0.46
2023-01-09T02:59:39.307Z,-0.44
2023-01-09T03:04:25.321Z,-0.53
2023-01-09T03:08:53.554Z,-0.41
2023-01-09T03:13:15.663Z,-0.57
2023-01-09T03:17:38.923Z,-0.60
2023-01-09T03:21:57.654Z,-0.58
2023-01-09T03:26:15.375Z,-0.69
2023-01-09T03:30:34.855Z,-0.58
2023-01-09T03:34:52.566Z,-0.46
2023-01-09T03:39:10.247Z,-0.54
2023-01-09T03:43:27.971Z,-0.71
2023-01-09T03:47:45.481Z,-0.56
2023-01-09T03:52:03.322Z,-0.39
2023-01-09T03:56:20.835Z,-0.26
2023-01-09T04:00:39.683Z,-0.13
2023-01-09T04:04:57.191Z,-0.18
2023-01-09T04:09:15.030Z,-0.28
2023-01-09T04:13:32.546Z,-0.26
2023-01-09T04:17:50.075Z,-0.29
2023-01-09T04:22:07.667Z,-0.29
2023-01-09T04:26:25.403Z,-0.12
2023-01-09T04:30:43.055Z,0.03
2023-01-09T04:35:00.552Z,-0.09
2023-01-09T04:39:18.148Z,-0.28
2023-01-09T04:43:35.697Z,-0.36
2023-01-09T04:47:53.569Z,-0.10
2023-01-09T04:52:11.040Z,-0.10
2023-01-09T04:56:28.774Z,-0.02
2023-01-09T05:00:46.441Z,0.05
2023-01-09T05:05:11.808Z,0.12
2023-01-09T05:09:29.847Z,0.28
2023-01-09T05:13:47.610Z,0.37
2023-01-09T05:18:05.264Z,0.57
2023-01-09T05:22:22.859Z,0.74
2023-01-09T05:26:40.571Z,0.84
2023-01-09T05:30:58.351Z,1.05
2023-01-09T05:35:16.043Z,1.18
2023-01-09T05:39:33.565Z,1.31
2023-01-09T05:43:51.228Z,1.31
2023-01-09T05:48:08.695Z,1.40
2023-01-09T05:52:26.388Z,1.61
2023-01-09T05:56:43.927Z,1.67
2023-01-09T06:01:01.735Z,1.71
2023-01-09T06:05:19.302Z,1.63
2023-01-09T06:09:37.257Z,1.74
2023-01-09T06:13:54.905Z,1.92
2023-01-09T06:18:12.558Z,2.10
2023-01-09T06:22:30.327Z,2.18
2023-01-09T06:26:48.197Z,2.43
2023-01-09T06:31:06.347Z,2.49
2023-01-09T06:35:24.159Z,2.61
2023-01-09T06:39:41.938Z,2.78
2023-01-09T06:43:59.424Z,2.84
2023-01-09T06:48:17.205Z,2.84
2023-01-09T06:52:34.882Z,2.87
2023-01-09T06:56:52.546Z,2.96
2023-01-09T07:01:10.393Z,3.09
2023-01-09T07:05:28.032Z,3.25
2023-01-09T07:09:45.949Z,3.36
2023-01-09T07:14:03.439Z,3.47
2023-01-09T07:18:21.160Z,3.61
2023-01-09T07:22:38.672Z,3.78
2023-01-09T07:26:56.306Z,3.95
2023-01-09T07:31:13.823Z,4.12
2023-01-09T07:35:31.532Z,4.22
2023-01-09T07:39:49.134Z,4.33
2023-01-09T07:44:09.561Z,4.43
2023-01-09T07:48:28.337Z,4.58
2023-01-09T07:52:46.860Z,4.67
2023-01-09T07:57:04.617Z,4.80
2023-01-09T08:01:22.563Z,4.99
2023-01-09T08:05:40.350Z,5.13
2023-01-09T08:09:58.020Z,5.39
2023-01-09T08:14:15.805Z,5.46
2023-01-09T08:18:33.351Z,5.54
2023-01-09T08:22:52.320Z,5.60
2023-01-09T08:27:10.176Z,5.64
2023-01-09T08:31:28.000Z,5.81
2023-01-09T08:35:45.976Z,5.88
2023-01-09T08:40:03.904Z,5.99
2023-01-09T08:44:40.118Z,6.13
2023-01-09T08:48:57.788Z,6.29
2023-01-09T08:53:15.641Z,6.57
2023-01-09T08:57:33.443Z,6.63
2023-01-09T09:01:51.136Z,6.70
2023-01-09T09:06:08.845Z,6.81
2023-01-09T09:10:29.115Z,7.18
2023-01-09T09:15:07.301Z,7.29
2023-01-09T09:19:24.854Z,7.57
2023-01-09T09:23:42.518Z,7.64
2023-01-09T09:28:01.375Z,7.72
2023-01-09T09:32:19.173Z,7.53
2023-01-09T09:36:37.038Z,7.58
2023-01-09T09:41:42.437Z,7.82
2023-01-09T09:46:29.037Z,8.26
2023-01-09T09:51:25.084Z,8.58
2023-01-09T09:55:43.686Z,8.88
2023-01-09T10:00:01.812Z,8.96
2023-01-09T10:04:23.847Z,9.11
2023-01-09T10:09:02.650Z,8.99
2023-01-09T10:13:43.253Z,8.75
2023-01-09T10:18:42.004Z,8.71
2023-01-09T10:23:44.774Z,8.75
2023-01-09T10:28:50.798Z,8.75
2023-01-09T10:33:41.111Z,8.65
2023-01-09T10:38:01.867Z,8.41
2023-01-09T10:42:36.706Z,8.16
2023-01-09T10:46:57.419Z,8.16
2023-01-09T10:51:25.514Z,8.26
2023-01-09T10:55:50.374Z,8.30
2023-01-09T11:00:17.532Z,8.26
2023-01-09T11:04:37.963Z,8.23
2023-01-09T11:08:59.147Z,8.25
2023-01-09T11:13:33.415Z,8.29
2023-01-09T11:17:52.318Z,8.18
2023-01-09T11:22:19.066Z,8.16
2023-01-09T11:26:36.576Z,8.12
2023-01-09T11:31:00.636Z,8.10
2023-01-09T11:35:27.277Z,8.16
2023-01-09T11:39:48.237Z,8.12
2023-01-09T11:44:06.101Z,7.97
2023-01-09T11:48:57.146Z,7.88
2023-01-09T11:53:20.861Z,7.74
2023-01-09T11:57:38.426Z,7.70
2023-01-09T12:02:25.585Z,7.62
2023-01-09T12:07:17.476Z,7.70
2023-01-09T12:11:43.124Z,7.77
2023-01-09T12:16:23.275Z,7.78
2023-01-09T12:21:25.722Z,7.71
2023-01-09T12:26:02.119Z,7.68
2023-01-09T12:30:30.984Z,7.67
2023-01-09T12:35:33.433Z,7.71
2023-01-09T12:40:29.160Z,7.65
2023-01-09T12:44:57.660Z,7.54
2023-01-09T12:49:35.928Z,7.44
2023-01-09T12:54:23.838Z,7.43
2023-01-09T12:59:01.927Z,7.43
2023-01-09T13:03:49.836Z,7.43
2023-01-09T13:08:28.421Z,7.34
2023-01-09T13:12:47.823Z,7.40
2023-01-09T13:17:14.528Z,7.43
2023-01-09T13:21:32.559Z,7.43
2023-01-09T13:25:57.724Z,7.48
2023-01-09T13:30:39.253Z,7.42
2023-01-09T13:35:01.634Z,7.30
2023-01-09T13:39:37.868Z,7.24
2023-01-09T13:44:02.296Z,7.20
2023-01-09T13:48:42.094Z,7.16
2023-01-09T13:53:19.839Z,7.32
2023-01-09T13:58:08.336Z,7.48
2023-01-09T14:02:41.692Z,7.54
2023-01-09T14:07:20.401Z,7.42
2023-01-09T14:11:38.227Z,7.40
2023-01-09T14:16:11.097Z,7.36
2023-01-09T14:20:36.953Z,7.36
2023-01-09T14:25:01.391Z,7.30
2023-01-09T14:29:44.841Z,7.30
2023-01-09T14:34:32.025Z,7.27
2023-01-09T14:39:04.232Z,7.20
2023-01-09T14:43:38.545Z,7.23
2023-01-09T14:48:02.776Z,7.23
2023-01-09T14:52:30.284Z,7.24
2023-01-09T14:56:48.399Z,7.22
2023-01-09T15:01:23.796Z,7.19
2023-01-09T15:05:45.538Z,7.26
2023-01-09T15:10:05.057Z,7.19
2023-01-09T15:14:40.264Z,7.16
2023-01-09T15:19:02.564Z,7.19
2023-01-09T15:23:26.377Z,7.12
2023-01-09T15:27:56.459Z,7.11
2023-01-09T15:32:29.344Z,7.16
2023-01-09T15:36:49.377Z,7.15
2023-01-09T15:41:12.171Z,7.12
2023-01-09T15:45:56.774Z,7.06
2023-01-09T15:50:18.000Z,7.02
2023-01-09T15:54:36.105Z,7.04
2023-01-09T15:58:55.227Z,6.99
2023-01-09T16:03:20.620Z,6.91
2023-01-09T16:07:46.766Z,6.84
2023-01-09T16:12:04.871Z,6.80
2023-01-09T16:16:31.409Z,6.75
2023-01-09T16:20:49.658Z,6.75
2023-01-09T16:25:35.096Z,6.67
2023-01-09T16:29:57.988Z,6.67
2023-01-09T16:34:16.687Z,6.63
2023-01-09T16:38:34.600Z,6.64
2023-01-09T16:43:07.542Z,6.58
2023-01-09T16:47:25.053Z,6.54
2023-01-09T16:51:43.650Z,6.57
2023-01-09T16:56:01.147Z,6.57
2023-01-09T17:00:21.298Z,6.50
2023-01-09T17:04:38.802Z,6.39
2023-01-09T17:08:56.992Z,6.39
2023-01-09T17:13:14.625Z,6.37
2023-01-09T17:17:32.278Z,6.33
2023-01-09T17:21:49.894Z,6.34
2023-01-09T17:26:31.540Z,6.41
2023-01-09T17:30:49.337Z,6.39
2023-01-09T17:35:07.366Z,6.39
2023-01-09T17:39:25.434Z,6.36
2023-01-09T17:43:44.513Z,6.34
2023-01-09T17:48:03.352Z,6.29
2023-01-09T17:52:22.263Z,6.29
2023-01-09T17:56:44.461Z,6.26
2023-01-09T18:01:02.275Z,6.29
2023-01-09T18:05:24.617Z,6.37
2023-01-09T18:09:43.669Z,6.39
2023-01-09T18:14:01.329Z,6.36
2023-01-09T18:18:20.331Z,6.34
2023-01-09T18:22:38.175Z,6.36
2023-01-09T18:26:55.889Z,6.34
2023-01-09T18:31:15.772Z,6.27
2023-01-09T18:35:34.566Z,6.20
2023-01-09T18:39:52.270Z,6.20
2023-01-09T18:44:09.813Z,6.15
2023-01-09T18:48:27.437Z,6.10
2023-01-09T18:52:44.933Z,6.03
2023-01-09T18:57:02.666Z,5.91
2023-01-09T19:01:20.217Z,5.82
2023-01-09T19:05:38.076Z,5.78
2023-01-09T19:09:55.682Z,5.44
2023-01-09T19:14:13.401Z,5.27
2023-01-09T19:18:35.415Z,5.09
2023-01-09T19:22:55.451Z,4.80
2023-01-09T19:27:13.200Z,4.64
2023-01-09T19:31:30.945Z,4.58
2023-01-09T19:35:49.345Z,4.52
2023-01-09T19:40:07.342Z,4.60
2023-01-09T19:44:25.333Z,4.63
2023-01-09T19:48:43.126Z,4.63
2023-01-09T19:53:00.650Z,4.66
2023-01-09T19:57:18.309Z,4.70
2023-01-09T20:01:39.592Z,4.74
2023-01-09T20:06:04.503Z,4.64
2023-01-09T20:10:22.132Z,4.45
2023-01-09T20:14:40.071Z,4.32
2023-01-09T20:19:00.826Z,4.36
2023-01-09T20:23:21.717Z,4.33
2023-01-09T20:27:39.172Z,4.30
2023-01-09T20:31:57.321Z,4.30
2023-01-09T20:36:15.718Z,4.27
2023-01-09T20:40:36.564Z,4.27
2023-01-09T20:44:54.216Z,4.27
2023-01-09T20:49:14.339Z,4.27
2023-01-09T20:53:31.829Z,4.22
2023-01-09T20:57:49.856Z,4.18
2023-01-09T21:02:14.714Z,4.08
2023-01-09T21:06:32.662Z,3.85
2023-01-09T21:10:57.342Z,3.71
2023-01-09T21:15:18.093Z,3.63
2023-01-09T21:19:35.601Z,3.61
2023-01-09T21:23:56.864Z,3.54
2023-01-09T21:28:17.645Z,3.40
2023-01-09T21:32:35.788Z,3.61
2023-01-09T21:36:53.843Z,3.87
2023-01-09T21:41:30.729Z,4.15
2023-01-09T21:46:07.019Z,4.13
2023-01-09T21:50:24.085Z,4.26
2023-01-09T21:54:42.096Z,4.30
2023-01-09T21:58:59.566Z,4.27
2023-01-09T22:03:19.295Z,4.34
2023-01-09T22:07:36.860Z,4.32
2023-01-09T22:11:54.705Z,4.25
2023-01-09T22:16:13.225Z,4.20
2023-01-09T22:20:31.041Z,4.08
2023-01-09T22:24:50.041Z,4.18
2023-01-09T22:29:07.701Z,4.03
2023-01-09T22:33:25.337Z,4.05
2023-01-09T22:37:43.123Z,3.99
2023-01-09T22:42:00.572Z,3.87
2023-01-09T22:46:18.214Z,3.85
2023-01-09T22:50:36.746Z,3.84
2023-01-09T22:54:57.274Z,3.82
2023-01-09T22:59:14.816Z,4.01
2023-01-09T23:03:32.809Z,4.18
2023-01-09T23:07:50.286Z,4.26
2023-01-09T23:12:08.267Z,4.30
2023-01-09T23:16:26.198Z,4.26
2023-01-09T23:20:58.018Z,4.23
2023-01-09T23:25:16.104Z,4.15
2023-01-09T23:29:33.698Z,4.10
2023-01-09T23:33:57.223Z,4.16
2023-01-09T23:38:15.568Z,4.22
2023-01-09T23:42:51.696Z,4.20
2023-01-09T23:47:08.956Z,4.18
2023-01-09T23:51:27.729Z,4.22
2023-01-09T23:55:45.131Z,4.20
